createdAt,value
2019-01-18T00:01:18.755Z,3.13
2019-01-18T00:03:59.623Z,2.63
2019-01-18T00:06:40.170Z,3.07
2019-01-18T00:09:21.190Z,3.30
2019-01-18T00:12:02.676Z,4.00
2019-01-18T00:14:43.650Z,3.60
2019-01-18T00:17:24.708Z,3.60
2019-01-18T00:20:05.356Z,3.20
2019-01-18T00:22:46.505Z,3.53
2019-01-18T00:25:27.120Z,3.60
2019-01-18T00:28:07.886Z,3.70
2019-01-18T00:30:49.099Z,4.17
2019-01-18T00:33:30.469Z,3.77
2019-01-18T00:36:12.103Z,3.30
2019-01-18T00:38:53.493Z,4.00
2019-01-18T00:41:35.305Z,4.20
2019-01-18T00:44:16.261Z,4.10
2019-01-18T00:46:56.991Z,4.23
2019-01-18T00:49:38.463Z,4.07
2019-01-18T00:52:18.872Z,4.20
2019-01-18T00:55:00.086Z,3.63
2019-01-18T00:57:40.729Z,4.40
2019-01-18T01:00:21.447Z,4.67
2019-01-18T01:03:02.235Z,4.80
2019-01-18T01:05:42.876Z,4.90
2019-01-18T01:08:23.307Z,4.80
2019-01-18T01:11:04.000Z,4.40
2019-01-18T01:13:45.032Z,5.50
2019-01-18T01:16:26.124Z,4.90
2019-01-18T01:19:05.661Z,5.27
2019-01-18T01:21:54.368Z,3.70
2019-01-18T01:27:36.176Z,4.37
2019-01-18T01:30:43.844Z,4.47
2019-01-18T01:33:32.190Z,4.70
2019-01-18T01:36:20.271Z,3.60
2019-01-18T01:42:19.136Z,4.87
2019-01-18T01:45:07.629Z,3.03
2019-01-18T01:47:55.972Z,3.80
2019-01-18T01:50:44.059Z,4.50
2019-01-18T01:53:32.391Z,3.70
2019-01-18T01:56:20.708Z,2.90
2019-01-18T01:59:08.957Z,4.00
2019-01-18T02:01:57.069Z,3.47
2019-01-18T02:04:45.165Z,3.50
2019-01-18T02:07:33.179Z,3.90
2019-01-18T02:10:21.271Z,4.07
2019-01-18T02:13:09.355Z,4.07
2019-01-18T02:15:57.449Z,3.90
2019-01-18T02:18:45.735Z,3.97
2019-01-18T02:21:26.923Z,3.20
2019-01-18T02:24:07.939Z,4.13
2019-01-18T02:26:48.612Z,3.87
2019-01-18T02:29:29.504Z,4.20
2019-01-18T02:32:10.364Z,2.83
2019-01-18T02:34:51.220Z,4.40
2019-01-18T02:37:32.029Z,2.90
2019-01-18T02:40:13.510Z,3.63
2019-01-18T02:42:54.113Z,3.37
2019-01-18T02:45:34.996Z,3.50
2019-01-18T02:48:16.440Z,2.77
2019-01-18T02:50:57.876Z,3.60
2019-01-18T02:53:39.099Z,3.60
2019-01-18T02:56:20.248Z,3.60
2019-01-18T02:59:02.668Z,3.60
2019-01-18T03:01:43.811Z,3.70
2019-01-18T03:04:27.406Z,4.23
2019-01-18T03:07:08.811Z,4.70
2019-01-18T03:09:49.606Z,3.77
2019-01-18T03:12:31.083Z,3.60
2019-01-18T03:15:12.293Z,3.73
2019-01-18T03:17:52.695Z,3.20
2019-01-18T03:20:34.021Z,4.50
2019-01-18T03:23:15.478Z,4.17
2019-01-18T03:25:56.783Z,4.00
2019-01-18T03:28:37.157Z,3.30
2019-01-18T03:31:18.645Z,5.37
2019-01-18T03:33:59.397Z,4.10
2019-01-18T03:36:40.068Z,4.90
2019-01-18T03:39:21.392Z,3.87
2019-01-18T03:42:02.487Z,3.67
2019-01-18T03:44:43.380Z,5.40
2019-01-18T03:47:24.301Z,5.00
2019-01-18T03:50:04.787Z,5.00
2019-01-18T03:52:45.730Z,5.10
2019-01-18T03:55:26.601Z,4.83
2019-01-18T03:58:07.636Z,3.73
2019-01-18T04:00:48.951Z,4.90
2019-01-18T04:03:29.905Z,4.40
2019-01-18T04:06:10.898Z,5.30
2019-01-18T04:08:52.172Z,4.10
2019-01-18T04:11:33.356Z,5.00
2019-01-18T04:14:14.230Z,5.10
2019-01-18T04:16:55.027Z,5.90
2019-01-18T04:19:36.148Z,3.93
2019-01-18T04:22:16.919Z,5.20
2019-01-18T04:24:58.099Z,4.10
2019-01-18T04:27:39.628Z,5.50
2019-01-18T04:30:20.224Z,4.53
2019-01-18T04:33:02.829Z,4.20
2019-01-18T04:35:43.772Z,5.20
2019-01-18T04:38:24.561Z,4.83
2019-01-18T04:41:05.169Z,5.30
2019-01-18T04:43:45.806Z,4.50
2019-01-18T04:46:26.949Z,6.10
2019-01-18T04:49:08.196Z,5.70
2019-01-18T04:51:48.735Z,5.53
2019-01-18T04:54:29.779Z,5.70
2019-01-18T04:57:11.072Z,5.50
2019-01-18T04:59:52.012Z,4.30
2019-01-18T05:02:33.701Z,5.47
2019-01-18T05:05:14.499Z,4.80
2019-01-18T05:07:55.488Z,4.63
2019-01-18T05:10:36.632Z,4.80
2019-01-18T05:13:18.352Z,4.50
2019-01-18T05:16:04.704Z,4.47
2019-01-18T05:18:45.706Z,5.20
2019-01-18T05:21:26.400Z,4.77
2019-01-18T05:24:07.337Z,4.40
2019-01-18T05:26:48.409Z,5.47
2019-01-18T05:29:29.448Z,5.20
2019-01-18T05:32:10.366Z,4.53
2019-01-18T05:34:51.140Z,3.83
2019-01-18T05:37:32.014Z,5.20
2019-01-18T05:40:12.583Z,5.40
2019-01-18T05:42:52.891Z,5.83
2019-01-18T05:45:33.668Z,6.97
2019-01-18T05:48:14.492Z,5.80
2019-01-18T05:50:56.504Z,5.40
2019-01-18T05:53:37.337Z,5.67
2019-01-18T05:56:17.896Z,5.80
2019-01-18T05:58:58.720Z,6.17
2019-01-18T06:01:40.164Z,5.13
2019-01-18T06:04:20.879Z,6.23
2019-01-18T06:07:06.508Z,7.30
2019-01-18T06:09:47.495Z,6.93
2019-01-18T06:12:28.287Z,6.57
2019-01-18T06:15:09.549Z,7.10
2019-01-18T06:17:50.584Z,6.37
2019-01-18T06:20:31.278Z,6.63
2019-01-18T06:23:12.362Z,6.07
2019-01-18T06:25:53.506Z,6.87
2019-01-18T06:28:34.476Z,8.03
2019-01-18T06:31:15.407Z,7.90
2019-01-18T06:33:56.247Z,8.07
2019-01-18T06:36:37.773Z,7.20
2019-01-18T06:39:19.048Z,7.60
2019-01-18T06:41:59.990Z,7.63
2019-01-18T06:44:40.742Z,6.50
2019-01-18T06:47:21.508Z,6.50
2019-01-18T06:50:02.662Z,7.07
2019-01-18T06:52:43.636Z,5.87
2019-01-18T06:55:24.477Z,8.30
2019-01-18T06:58:04.956Z,8.27
2019-01-18T07:00:45.767Z,7.13
2019-01-18T07:03:26.382Z,6.80
2019-01-18T07:06:07.647Z,7.60
2019-01-18T07:08:48.951Z,7.10
2019-01-18T07:11:29.888Z,7.80
2019-01-18T07:14:11.240Z,8.13
2019-01-18T07:16:51.765Z,8.13
2019-01-18T07:19:32.796Z,7.70
2019-01-18T07:22:14.060Z,8.50
2019-01-18T07:24:54.686Z,8.20
2019-01-18T07:27:35.483Z,8.57
2019-01-18T07:30:16.660Z,8.20
2019-01-18T07:32:57.623Z,8.40
2019-01-18T07:35:39.136Z,7.70
2019-01-18T07:38:20.309Z,7.90
2019-01-18T07:41:05.310Z,9.20
2019-01-18T07:43:46.752Z,7.30
2019-01-18T07:46:27.676Z,11.20
2019-01-18T07:49:08.496Z,11.40
2019-01-18T07:51:48.866Z,9.30
2019-01-18T07:54:29.799Z,8.70
2019-01-18T07:57:10.924Z,8.10
2019-01-18T07:59:51.599Z,8.90
2019-01-18T08:02:32.147Z,8.47
2019-01-18T08:05:12.588Z,10.40
2019-01-18T08:07:53.647Z,10.13
2019-01-18T08:10:34.999Z,10.40
2019-01-18T08:13:16.653Z,10.20
2019-01-18T08:15:57.593Z,10.13
2019-01-18T08:18:38.844Z,9.83
2019-01-18T08:21:20.207Z,7.80
2019-01-18T08:24:07.456Z,8.40
2019-01-18T08:26:48.484Z,7.73
2019-01-18T08:29:30.089Z,7.20
2019-01-18T08:32:10.951Z,6.87
2019-01-18T08:34:51.630Z,5.77
2019-01-18T08:37:32.918Z,5.73
2019-01-18T08:40:13.573Z,5.70
2019-01-18T08:42:54.195Z,5.60
2019-01-18T08:45:35.104Z,6.20
2019-01-18T08:48:15.772Z,6.00
2019-01-18T08:50:56.411Z,5.53
2019-01-18T08:53:37.431Z,6.20
2019-01-18T08:56:18.477Z,5.20
2019-01-18T08:58:59.208Z,5.70
2019-01-18T09:01:40.109Z,5.57
2019-01-18T09:04:21.193Z,6.20
2019-01-18T09:07:02.811Z,5.77
2019-01-18T09:09:44.251Z,6.03
2019-01-18T09:12:24.825Z,5.47
2019-01-18T09:15:05.384Z,5.67
2019-01-18T09:17:46.491Z,6.00
2019-01-18T09:20:27.039Z,4.97
2019-01-18T09:23:08.251Z,5.10
2019-01-18T09:25:48.644Z,4.60
2019-01-18T09:28:29.247Z,4.80
2019-01-18T09:31:09.875Z,4.87
2019-01-18T09:33:50.819Z,4.37
2019-01-18T09:36:32.352Z,3.93
2019-01-18T09:39:13.484Z,3.40
2019-01-18T09:41:54.608Z,4.10
2019-01-18T09:44:35.752Z,3.53
2019-01-18T09:47:16.308Z,3.97
2019-01-18T09:49:57.352Z,4.40
2019-01-18T09:52:38.383Z,3.70
2019-01-18T09:55:18.767Z,3.80
2019-01-18T09:57:59.532Z,3.43
2019-01-18T10:00:40.591Z,3.50
2019-01-18T10:03:21.351Z,3.30
2019-01-18T10:06:02.864Z,3.80
2019-01-18T10:08:43.672Z,3.47
2019-01-18T10:11:24.215Z,3.33
2019-01-18T10:14:05.556Z,3.53
2019-01-18T10:16:45.864Z,3.47
2019-01-18T10:19:26.805Z,3.07
2019-01-18T10:22:07.361Z,3.43
2019-01-18T10:24:48.297Z,3.50
2019-01-18T10:27:30.156Z,3.37
2019-01-18T10:30:11.163Z,4.00
2019-01-18T10:32:52.200Z,3.10
2019-01-18T10:35:32.789Z,3.27
2019-01-18T10:38:13.339Z,3.27
2019-01-18T10:40:54.504Z,2.60
2019-01-18T10:43:35.892Z,3.47
2019-01-18T10:46:17.059Z,2.87
2019-01-18T10:48:57.920Z,3.40
2019-01-18T10:51:38.560Z,2.90
2019-01-18T10:54:19.299Z,3.53
2019-01-18T10:57:00.535Z,2.73
2019-01-18T10:59:41.214Z,3.03
2019-01-18T11:02:21.775Z,3.40
2019-01-18T11:05:02.756Z,3.07
2019-01-18T11:07:43.810Z,3.00
2019-01-18T11:10:24.212Z,3.10
2019-01-18T11:13:05.165Z,2.90
2019-01-18T11:15:45.708Z,3.20
2019-01-18T11:18:26.172Z,2.80
2019-01-18T11:21:07.370Z,3.13
2019-01-18T11:23:48.180Z,3.07
2019-01-18T11:26:29.504Z,2.70
2019-01-18T11:29:10.787Z,2.67
2019-01-18T11:31:50.648Z,2.50
2019-01-18T11:34:38.727Z,2.53
2019-01-18T11:37:27.149Z,2.87
2019-01-18T11:40:16.887Z,3.27
2019-01-18T11:43:05.248Z,2.63
2019-01-18T11:45:53.894Z,2.73
2019-01-18T11:51:36.112Z,2.47
2019-01-18T11:57:19.056Z,2.40
2019-01-18T12:00:09.267Z,2.63
2019-01-18T12:02:57.688Z,2.57
2019-01-18T12:05:46.144Z,3.00
2019-01-18T12:08:34.791Z,2.50
2019-01-18T12:11:23.073Z,2.43
2019-01-18T12:14:11.696Z,2.50
2019-01-18T12:16:59.680Z,2.20
2019-01-18T12:19:47.804Z,3.10
2019-01-18T12:22:35.836Z,2.27
2019-01-18T12:25:24.264Z,3.00
2019-01-18T12:28:12.279Z,3.10
2019-01-18T12:31:00.643Z,2.47
2019-01-18T12:33:42.067Z,2.57
2019-01-18T12:36:23.380Z,2.60
2019-01-18T12:39:04.900Z,2.90
2019-01-18T12:41:45.672Z,2.27
2019-01-18T12:44:26.631Z,2.70
2019-01-18T12:47:07.408Z,3.03
2019-01-18T12:49:48.369Z,2.90
2019-01-18T12:52:28.768Z,2.43
2019-01-18T12:55:09.478Z,2.37
2019-01-18T12:57:51.703Z,2.60
2019-01-18T13:00:33.503Z,2.70
2019-01-18T13:03:14.261Z,2.47
2019-01-18T13:05:56.451Z,2.57
2019-01-18T13:08:37.076Z,2.90
2019-01-18T13:11:17.760Z,2.83
2019-01-18T13:13:58.604Z,4.27
2019-01-18T13:16:40.008Z,4.00
2019-01-18T13:19:21.080Z,3.17
2019-01-18T13:22:04.617Z,3.20
2019-01-18T13:24:45.371Z,3.40
2019-01-18T13:27:26.119Z,3.23
2019-01-18T13:30:06.856Z,3.30
2019-01-18T13:32:48.055Z,3.07
2019-01-18T13:35:29.511Z,3.30
2019-01-18T13:38:09.753Z,3.60
2019-01-18T13:40:50.642Z,3.50
2019-01-18T13:43:31.460Z,3.20
2019-01-18T13:46:12.812Z,3.73
2019-01-18T13:48:54.048Z,3.80
2019-01-18T13:51:35.359Z,3.23
2019-01-18T13:54:16.860Z,4.03
2019-01-18T13:56:58.264Z,3.40
2019-01-18T13:59:39.350Z,3.93
2019-01-18T14:02:20.502Z,4.10
2019-01-18T14:05:01.392Z,3.87
2019-01-18T14:07:42.472Z,3.57
2019-01-18T14:10:23.870Z,3.10
2019-01-18T14:13:05.428Z,3.13
2019-01-18T14:15:46.832Z,2.90
2019-01-18T14:18:27.555Z,3.17
2019-01-18T14:21:08.217Z,3.40
2019-01-18T14:23:49.176Z,4.30
2019-01-18T14:26:29.724Z,3.27
2019-01-18T14:29:10.107Z,3.90
2019-01-18T14:31:53.349Z,4.70
2019-01-18T14:34:34.812Z,4.17
2019-01-18T14:37:15.214Z,4.73
2019-01-18T14:39:56.033Z,4.33
2019-01-18T14:42:36.820Z,3.60
2019-01-18T14:45:17.492Z,3.70
2019-01-18T14:47:58.525Z,3.40
2019-01-18T14:50:38.996Z,3.67
2019-01-18T14:53:20.041Z,3.73
2019-01-18T14:55:59.228Z,3.60
2019-01-18T14:58:47.398Z,4.10
2019-01-18T15:01:36.480Z,3.70
2019-01-18T15:04:24.989Z,6.93
2019-01-18T15:07:13.128Z,6.13
2019-01-18T15:10:05.130Z,5.53
2019-01-18T15:15:45.851Z,3.10
2019-01-18T15:21:55.680Z,3.30
2019-01-18T15:24:34.484Z,3.53
2019-01-18T15:27:22.548Z,3.63
2019-01-18T15:30:12.139Z,3.73
2019-01-18T15:33:00.779Z,3.13
2019-01-18T15:35:51.048Z,3.10
2019-01-18T15:38:39.696Z,2.83
2019-01-18T15:41:29.386Z,2.83
2019-01-18T15:44:17.380Z,3.67
2019-01-18T15:47:06.298Z,3.10
2019-01-18T15:49:55.128Z,2.83
2019-01-18T15:52:43.524Z,3.50
2019-01-18T15:55:25.357Z,2.40
2019-01-18T15:58:06.980Z,4.00
2019-01-18T16:00:47.912Z,12.87
2019-01-18T16:03:28.507Z,4.33
2019-01-18T16:06:09.577Z,3.20
2019-01-18T16:08:50.207Z,4.13
2019-01-18T16:11:31.252Z,3.30
2019-01-18T16:14:12.347Z,3.57
2019-01-18T16:16:53.396Z,4.60
2019-01-18T16:19:34.444Z,5.87
2019-01-18T16:22:16.175Z,6.10
2019-01-18T16:24:57.253Z,7.23
2019-01-18T16:27:38.524Z,7.10
2019-01-18T16:30:19.472Z,7.70
2019-01-18T16:33:00.440Z,10.37
2019-01-18T16:35:40.916Z,7.60
2019-01-18T16:38:22.017Z,7.53
2019-01-18T16:41:02.641Z,4.60
2019-01-18T16:43:43.844Z,4.03
2019-01-18T16:46:24.679Z,5.00
2019-01-18T16:49:05.533Z,6.80
2019-01-18T16:51:46.508Z,5.67
2019-01-18T16:54:27.156Z,4.33
2019-01-18T16:57:07.768Z,4.47
2019-01-18T16:59:48.903Z,3.37
2019-01-18T17:02:29.452Z,5.90
2019-01-18T17:05:10.572Z,5.33
2019-01-18T17:07:52.001Z,4.50
2019-01-18T17:10:33.464Z,5.40
2019-01-18T17:13:13.064Z,4.17
2019-01-18T17:16:01.148Z,6.30
2019-01-18T17:18:42.842Z,8.60
2019-01-18T17:21:23.844Z,9.23
2019-01-18T17:24:04.956Z,6.60
2019-01-18T17:26:45.820Z,6.60
2019-01-18T17:29:26.987Z,10.80
2019-01-18T17:32:08.076Z,11.90
2019-01-18T17:34:48.879Z,8.67
2019-01-18T17:37:30.220Z,8.60
2019-01-18T17:40:11.506Z,7.00
2019-01-18T17:42:55.993Z,7.27
2019-01-18T17:49:16.239Z,9.20
2019-01-18T17:52:23.471Z,6.87
2019-01-18T17:55:42.580Z,5.83
2019-01-18T17:58:50.012Z,6.20
2019-01-18T18:01:57.493Z,7.50
2019-01-18T18:05:05.016Z,6.83
2019-01-18T18:08:12.204Z,6.27
2019-01-18T18:11:19.584Z,7.50
2019-01-18T18:14:27.193Z,9.10
2019-01-18T18:17:34.940Z,10.50
2019-01-18T18:20:15.660Z,11.00
2019-01-18T18:23:19.775Z,11.17
2019-01-18T18:26:27.452Z,10.10
2019-01-18T18:29:34.643Z,8.53
2019-01-18T18:32:42.760Z,9.80
2019-01-18T18:35:49.963Z,8.27
2019-01-18T18:38:57.408Z,7.40
2019-01-18T18:42:04.639Z,6.80
2019-01-18T18:45:11.951Z,6.80
2019-01-18T18:48:19.436Z,6.77
2019-01-18T18:54:47.053Z,6.70
2019-01-18T18:57:54.748Z,6.47
2019-01-18T19:04:15.192Z,8.00
2019-01-18T19:07:22.699Z,6.40
2019-01-18T19:10:30.371Z,7.17
2019-01-18T19:13:37.612Z,7.53
2019-01-18T19:16:29.311Z,8.07
2019-01-18T19:19:36.521Z,8.47
2019-01-18T19:22:43.754Z,8.60
2019-01-18T19:25:25.207Z,7.40
2019-01-18T19:28:05.704Z,8.50
2019-01-18T19:30:46.500Z,8.50
2019-01-18T19:33:27.791Z,8.97
2019-01-18T19:36:08.895Z,6.73
2019-01-18T19:38:49.673Z,6.30
2019-01-18T19:41:30.302Z,7.10
2019-01-18T19:44:11.092Z,8.80
2019-01-18T19:46:52.551Z,8.93
2019-01-18T19:49:33.972Z,8.70
2019-01-18T19:52:14.952Z,8.87
2019-01-18T19:54:55.853Z,9.40
2019-01-18T19:57:36.427Z,7.67
2019-01-18T20:00:17.014Z,8.30
2019-01-18T20:02:57.828Z,9.47
2019-01-18T20:05:38.750Z,9.10
2019-01-18T20:08:19.420Z,8.17
2019-01-18T20:10:59.816Z,7.93
2019-01-18T20:13:40.760Z,8.07
2019-01-18T20:16:22.183Z,7.70
2019-01-18T20:19:05.539Z,7.97
2019-01-18T20:21:46.713Z,7.80
2019-01-18T20:24:28.027Z,7.50
2019-01-18T20:27:08.803Z,9.40
2019-01-18T20:29:49.473Z,8.40
2019-01-18T20:32:30.152Z,8.20
2019-01-18T20:35:10.888Z,8.50
2019-01-18T20:37:51.704Z,10.23
2019-01-18T20:40:32.379Z,8.77
2019-01-18T20:43:13.052Z,9.00
2019-01-18T20:45:53.632Z,7.53
2019-01-18T20:48:34.276Z,8.03
2019-01-18T20:51:15.493Z,6.83
2019-01-18T20:53:56.620Z,8.27
2019-01-18T20:56:38.276Z,7.90
2019-01-18T20:59:19.458Z,8.37
2019-01-18T21:01:59.721Z,7.80
2019-01-18T21:04:40.625Z,8.20
2019-01-18T21:07:21.208Z,6.30
2019-01-18T21:10:02.932Z,7.17
2019-01-18T21:12:43.877Z,7.30
2019-01-18T21:15:24.376Z,6.60
2019-01-18T21:18:05.386Z,7.33
2019-01-18T21:20:46.584Z,6.10
2019-01-18T21:23:27.330Z,6.27
2019-01-18T21:26:08.541Z,8.10
2019-01-18T21:28:50.787Z,11.13
2019-01-18T21:31:32.784Z,11.20
2019-01-18T21:34:14.010Z,13.30
2019-01-18T21:36:54.636Z,9.50
2019-01-18T21:39:35.445Z,9.20
2019-01-18T21:42:16.026Z,9.30
2019-01-18T21:44:56.674Z,11.20
2019-01-18T21:47:37.235Z,11.77
2019-01-18T21:50:18.257Z,12.37
2019-01-18T21:52:59.739Z,11.07
2019-01-18T21:55:40.749Z,8.40
2019-01-18T21:58:24.239Z,7.60
2019-01-18T22:15:42.644Z,8.60
2019-01-18T22:21:19.113Z,12.10
2019-01-18T22:27:21.376Z,12.30
2019-01-18T22:33:09.841Z,13.90
